Time,TemperatureF,DewpointF,PressureIn,WindDirection,WindDirectionDegrees,WindSpeedMPH,WindSpeedGustMPH,Humidity,HourlyPrecipIn,Conditions,Clouds,dailyrainin,SoftwareType,DateUTC
2013-10-01 00:01:00,60.8,60.4,30.06,SW,225,0.0,0.0,99,0.00,,,0.00,meteohub,2013-10-01 04:01:00,
2013-10-01 00:03:00,60.8,60.4,30.06,SW,225,0.0,0.0,99,0.00,,,0.00,meteohub,2013-10-01 04:03:00,
2013-10-01 00:04:00,60.8,60.4,30.06,SW,225,0.0,0.0,99,0.00,,,0.00,meteohub,2013-10-01 04:04:00,
2013-10-01 00:05:00,60.8,60.4,30.06,SW,225,0.0,0.0,99,0.00,,,0.00,meteohub,2013-10-01 04:05:00,
2013-10-01 00:10:00,60.6,60.3,30.06,SW,225,0.0,0.0,99,0.00,,,0.00,meteohub,2013-10-01 04:10:00,
2013-10-01 00:15:00,60.4,60.1,30.06,SW,225,0.0,0.0,99,0.00,,,0.00,meteohub,2013-10-01 04:15:00,
2013-10-01 00:20:00,60.4,60.1,30.06,SW,225,0.0,0.0,99,0.00,,,0.00,meteohub,2013-10-01 04:20:00,
2013-10-01 00:26:00,60.3,59.9,30.06,SW,225,0.0,0.0,99,0.00,,,0.00,meteohub,2013-10-01 04:26:00,
2013-10-01 00:31:00,60.1,59.7,30.06,SW,225,0.0,0.0,99,0.00,,,0.00,meteohub,2013-10-01 04:31:00,
2013-10-01 00:36:00,60.1,59.7,30.06,SW,225,0.0,0.0,99,0.00,,,0.00,meteohub,2013-10-01 04:36:00,
2013-10-01 00:41:00,59.9,59.5,30.06,SW,225,0.0,0.0,99,0.00,,,0.00,meteohub,2013-10-01 04:41:00,
2013-10-01 00:46:00,59.9,59.5,30.06,SW,225,0.0,0.0,99,0.00,,,0.00,meteohub,2013-10-01 04:46:00,
2013-10-01 00:51:00,59.9,59.5,30.06,SW,225,0.0,0.0,99,0.00,,,0.00,meteohub,2013-10-01 04:51:00,
2013-10-01 00:56:00,59.9,59.5,30.06,SW,225,0.0,0.0,99,0.00,,,0.00,meteohub,2013-10-01 04:56:00,
2013-10-01 01:02:00,59.7,59.4,30.06,SW,225,0.0,0.0,99,0.00,,,0.00,meteohub,2013-10-01 05:02:00,
2013-10-01 01:07:00,59.7,59.4,30.06,SW,225,0.0,0.0,99,0.00,,,0.00,meteohub,2013-10-01 05:07:00,
2013-10-01 01:12:00,59.7,59.4,30.06,SW,225,0.0,0.0,99,0.00,,,0.00,meteohub,2013-10-01 05:12:00,
2013-10-01 01:17:00,59.7,59.4,30.06,SW,225,0.0,0.0,99,0.00,,,0.00,meteohub,2013-10-01 05:17:00,
2013-10-01 01:22:00,59.5,59.2,30.06,SW,225,0.0,0.0,99,0.00,,,0.00,meteohub,2013-10-01 05:22:00,
2013-10-01 01:27:00,59.5,59.2,30.06,SW,225,0.0,0.0,99,0.00,,,0.00,meteohub,2013-10-01 05:27:00,
2013-10-01 01:32:00,59.5,59.2,30.06,SW,225,0.0,0.0,99,0.00,,,0.00,meteohub,2013-10-01 05:32:00,
2013-10-01 01:37:00,59.4,59.0,30.06,SW,225,0.0,0.0,99,0.00,,,0.00,meteohub,2013-10-01 05:37:00,
2013-10-01 01:42:00,59.4,59.0,30.06,SW,225,0.0,0.0,99,0.00,,,0.00,meteohub,2013-10-01 05:42:00,
2013-10-01 01:47:00,59.4,59.0,30.06,SW,225,0.0,0.0,99,0.00,,,0.00,meteohub,2013-10-01 05:47:00,
2013-10-01 01:52:00,59.2,58.8,30.06,SW,225,0.0,0.0,99,0.00,,,0.00,meteohub,2013-10-01 05:52:00,
2013-10-01 01:57:00,59.2,58.8,30.06,SW,225,0.0,0.0,99,0.00,,,0.00,meteohub,2013-10-01 05:57:00,
2013-10-01 02:02:00,59.2,58.8,30.06,SW,225,0.0,0.0,99,0.00,,,0.00,meteohub,2013-10-01 06:02:00,
2013-10-01 02:07:00,59.2,58.8,30.06,SW,225,0.0,0.0,99,0.00,,,0.00,meteohub,2013-10-01 06:07:00,
2013-10-01 02:12:00,59.2,58.8,30.06,SW,225,0.0,0.0,99,0.00,,,0.00,meteohub,2013-10-01 06:12:00,
2013-10-01 02:17:00,59.2,58.8,30.06,SW,225,0.0,0.0,99,0.00,,,0.00,meteohub,2013-10-01 06:17:00,
2013-10-01 02:23:00,59.2,58.8,30.06,SW,225,0.0,0.0,99,0.00,,,0.00,meteohub,2013-10-01 06:23:00,
2013-10-01 02:28:00,59.0,58.6,30.06,SW,225,0.0,0.0,99,0.00,,,0.00,meteohub,2013-10-01 06:28:00,
2013-10-01 02:33:00,59.0,58.6,30.06,SW,225,0.0,0.0,99,0.00,,,0.00,meteohub,2013-10-01 06:33:00,
2013-10-01 02:38:00,59.0,58.6,30.06,SW,225,0.0,0.0,99,0.00,,,0.00,meteohub,2013-10-01 06:38:00,
2013-10-01 02:43:00,58.8,58.5,30.06,SW,225,0.0,0.0,99,0.00,,,0.00,meteohub,2013-10-01 06:43:00,
2013-10-01 02:48:00,58.8,58.5,30.06,SW,225,0.0,0.0,99,0.00,,,0.00,meteohub,2013-10-01 06:48:00,
2013-10-01 02:53:00,58.8,58.5,30.06,SW,225,0.0,0.0,99,0.00,,,0.00,meteohub,2013-10-01 06:53:00,
2013-10-01 02:59:00,58.8,58.5,30.06,SW,225,0.0,0.0,99,0.00,,,0.00,meteohub,2013-10-01 06:59:00,
2013-10-01 03:04:00,58.6,58.3,30.06,SW,225,0.0,0.0,99,0.00,,,0.00,meteohub,2013-10-01 07:04:00,
2013-10-01 03:09:00,58.6,58.3,30.06,SW,225,0.0,0.0,99,0.00,,,0.00,meteohub,2013-10-01 07:09:00,
2013-10-01 03:14:00,58.3,57.9,30.06,SW,225,0.0,0.0,99,0.00,,,0.00,meteohub,2013-10-01 07:14:00,
2013-10-01 03:20:00,58.3,57.9,30.07,SW,225,0.0,0.0,99,0.00,,,0.00,meteohub,2013-10-01 07:20:00,
2013-10-01 03:25:00,58.1,57.7,30.06,SW,225,0.0,0.0,99,0.00,,,0.00,meteohub,2013-10-01 07:25:00,
2013-10-01 03:30:00,58.1,57.7,30.07,SW,225,0.0,0.0,99,0.00,,,0.00,meteohub,2013-10-01 07:30:00,
2013-10-01 03:36:00,57.9,57.6,30.06,SW,225,0.0,0.0,99,0.00,,,0.00,meteohub,2013-10-01 07:36:00,
2013-10-01 03:41:00,57.9,57.6,30.06,SW,225,0.0,0.0,99,0.00,,,0.00,meteohub,2013-10-01 07:41:00,
2013-10-01 03:47:00,57.9,57.6,30.06,SW,225,0.0,0.0,99,0.00,,,0.00,meteohub,2013-10-01 07:47:00,
2013-10-01 03:52:00,57.9,57.6,30.06,SW,225,0.0,0.0,99,0.00,,,0.00,meteohub,2013-10-01 07:52:00,
2013-10-01 03:57:00,58.1,57.7,30.06,SW,225,0.0,0.0,99,0.00,,,0.00,meteohub,2013-10-01 07:57:00,
2013-10-01 04:02:00,58.1,57.7,30.06,SW,225,0.0,0.0,99,0.00,,,0.00,meteohub,2013-10-01 08:02:00,
2013-10-01 04:07:00,58.1,57.7,30.06,SW,225,0.0,0.0,99,0.00,,,0.00,meteohub,2013-10-01 08:07:00,
2013-10-01 04:12:00,57.9,57.6,30.06,SW,225,0.0,0.0,99,0.00,,,0.00,meteohub,2013-10-01 08:12:00,
2013-10-01 04:17:00,57.9,57.6,30.06,SW,225,0.0,0.0,99,0.00,,,0.00,meteohub,2013-10-01 08:17:00,
2013-10-01 04:23:00,57.9,57.6,30.07,SW,225,0.0,0.0,99,0.00,,,0.00,meteohub,2013-10-01 08:23:00,
2013-10-01 04:28:00,57.7,57.4,30.06,SW,225,0.0,0.0,99,0.00,,,0.00,meteohub,2013-10-01 08:28:00,
2013-10-01 04:34:00,57.7,57.4,30.06,SW,225,0.0,0.0,99,0.00,,,0.00,meteohub,2013-10-01 08:34:00,
2013-10-01 04:39:00,57.7,57.4,30.06,SW,225,0.0,0.0,99,0.00,,,0.00,meteohub,2013-10-01 08:39:00,
2013-10-01 04:44:00,57.7,57.4,30.07,SW,225,0.0,0.0,99,0.00,,,0.00,meteohub,2013-10-01 08:44:00,
2013-10-01 04:49:00,57.7,57.4,30.07,SW,225,0.0,0.0,99,0.00,,,0.00,meteohub,2013-10-01 08:49:00,
2013-10-01 04:55:00,57.6,57.2,30.06,SW,225,0.0,0.0,99,0.00,,,0.00,meteohub,2013-10-01 08:55:00,
2013-10-01 05:00:00,57.6,57.2,30.07,SW,225,0.0,0.0,99,0.00,,,0.00,meteohub,2013-10-01 09:00:00,
2013-10-01 05:05:00,57.6,57.2,30.07,SW,225,0.0,0.0,99,0.00,,,0.00,meteohub,2013-10-01 09:05:00,
2013-10-01 05:11:00,57.6,57.2,30.07,SW,225,0.0,0.0,99,0.00,,,0.00,meteohub,2013-10-01 09:11:00,
2013-10-01 05:16:00,57.4,57.0,30.07,SW,225,0.0,0.0,99,0.00,,,0.00,meteohub,2013-10-01 09:16:00,
2013-10-01 05:22:00,57.4,57.0,30.07,SW,225,0.0,0.0,99,0.00,,,0.00,meteohub,2013-10-01 09:22:00,
2013-10-01 05:27:00,57.2,56.8,30.07,SW,225,0.0,0.0,99,0.00,,,0.00,meteohub,2013-10-01 09:27:00,
2013-10-01 05:32:00,57.2,56.8,30.08,SW,225,0.0,0.0,99,0.00,,,0.00,meteohub,2013-10-01 09:32:00,
2013-10-01 05:38:00,57.2,56.8,30.08,SW,225,0.0,0.0,99,0.00,,,0.00,meteohub,2013-10-01 09:38:00,
2013-10-01 05:43:00,57.2,56.8,30.08,SW,225,0.0,0.0,99,0.00,,,0.00,meteohub,2013-10-01 09:43:00,
2013-10-01 05:48:00,57.2,56.8,30.08,SW,225,0.0,0.0,99,0.00,,,0.00,meteohub,2013-10-01 09:48:00,
2013-10-01 05:54:00,57.4,57.0,30.08,SW,225,0.0,0.0,99,0.00,,,0.00,meteohub,2013-10-01 09:54:00,
2013-10-01 05:59:00,57.4,57.0,30.09,SW,225,0.0,0.0,99,0.00,,,0.00,meteohub,2013-10-01 09:59:00,
2013-10-01 06:04:00,57.4,57.0,30.09,SW,225,0.0,0.0,99,0.00,,,0.00,meteohub,2013-10-01 10:04:00,
2013-10-01 06:09:00,57.4,57.0,30.09,SW,225,0.0,0.0,99,0.00,,,0.00,meteohub,2013-10-01 10:09:00,
2013-10-01 06:15:00,57.4,57.0,30.09,SW,225,0.0,0.0,99,0.00,,,0.00,meteohub,2013-10-01 10:15:00,
2013-10-01 06:20:00,57.4,57.0,30.10,SW,225,0.0,0.0,99,0.00,,,0.00,meteohub,2013-10-01 10:20:00,
2013-10-01 06:25:00,57.4,57.0,30.10,SW,225,0.0,0.0,99,0.00,,,0.00,meteohub,2013-10-01 10:25:00,
2013-10-01 06:31:00,57.4,57.0,30.10,SW,225,0.0,0.0,99,0.00,,,0.00,meteohub,2013-10-01 10:31:00,
2013-10-01 06:36:00,57.4,57.0,30.10,SW,225,0.0,0.0,99,0.00,,,0.00,meteohub,2013-10-01 10:36:00,
2013-10-01 06:41:00,57.6,57.2,30.10,SW,225,0.0,0.0,99,0.00,,,0.00,meteohub,2013-10-01 10:41:00,
2013-10-01 06:46:00,57.7,57.4,30.10,SW,225,0.0,0.0,99,0.00,,,0.00,meteohub,2013-10-01 10:46:00,
2013-10-01 06:52:00,57.7,57.4,30.10,SW,225,0.0,0.0,99,0.00,,,0.00,meteohub,2013-10-01 10:52:00,
2013-10-01 06:57:00,57.9,57.6,30.11,SW,225,0.0,0.0,99,0.00,,,0.00,meteohub,2013-10-01 10:57:00,
2013-10-01 07:02:00,57.9,57.6,30.11,SW,225,0.0,0.0,99,0.00,,,0.00,meteohub,2013-10-01 11:02:00,
2013-10-01 07:07:00,57.9,57.6,30.11,SW,225,0.0,0.0,99,0.00,,,0.00,meteohub,2013-10-01 11:07:00,
2013-10-01 07:12:00,57.9,57.6,30.11,SW,225,0.0,0.0,99,0.00,,,0.00,meteohub,2013-10-01 11:12:00,
2013-10-01 07:18:00,58.1,57.7,30.12,SW,225,0.0,0.0,99,0.00,,,0.00,meteohub,2013-10-01 11:18:00,
2013-10-01 07:24:00,58.1,57.7,30.12,SW,225,0.0,0.0,99,0.00,,,0.00,meteohub,2013-10-01 11:24:00,
2013-10-01 07:29:00,58.1,57.7,30.12,SW,225,0.0,0.0,99,0.00,,,0.00,meteohub,2013-10-01 11:29:00,
2013-10-01 07:35:00,58.3,57.9,30.12,SW,225,0.0,0.0,99,0.00,,,0.00,meteohub,2013-10-01 11:35:00,
2013-10-01 07:40:00,58.5,58.1,30.12,SW,225,0.0,0.0,99,0.00,,,0.00,meteohub,2013-10-01 11:40:00,
2013-10-01 07:45:00,58.5,58.1,30.12,SW,225,0.0,0.0,99,0.00,,,0.00,meteohub,2013-10-01 11:45:00,
2013-10-01 07:51:00,58.6,58.3,30.13,SW,225,0.0,0.0,99,0.00,,,0.00,meteohub,2013-10-01 11:51:00,
2013-10-01 07:56:00,58.6,58.3,30.12,SW,225,0.0,0.0,99,0.00,,,0.00,meteohub,2013-10-01 11:56:00,
2013-10-01 08:02:00,58.6,58.3,30.12,SW,225,0.0,0.0,99,0.00,,,0.00,meteohub,2013-10-01 12:02:00,
2013-10-01 08:07:00,58.6,58.3,30.12,SW,225,0.0,0.0,99,0.00,,,0.00,meteohub,2013-10-01 12:07:00,
2013-10-01 08:12:00,58.8,58.5,30.13,SW,225,0.0,0.0,99,0.00,,,0.00,meteohub,2013-10-01 12:12:00,
2013-10-01 08:17:00,58.8,58.5,30.13,SW,225,0.0,0.0,99,0.00,,,0.00,meteohub,2013-10-01 12:17:00,
2013-10-01 08:22:00,59.0,58.6,30.13,SW,225,0.0,0.0,99,0.00,,,0.00,meteohub,2013-10-01 12:22:00,
2013-10-01 08:27:00,59.2,58.8,30.13,SW,225,0.0,0.0,99,0.00,,,0.00,meteohub,2013-10-01 12:27:00,
2013-10-01 08:33:00,59.5,59.2,30.13,SW,225,0.0,0.0,99,0.00,,,0.00,meteohub,2013-10-01 12:33:00,
2013-10-01 08:38:00,59.7,59.4,30.13,SW,225,0.0,0.0,99,0.00,,,0.00,meteohub,2013-10-01 12:38:00,
2013-10-01 08:43:00,59.9,59.5,30.13,SW,225,0.0,0.0,99,0.00,,,0.00,meteohub,2013-10-01 12:43:00,
2013-10-01 08:49:00,60.1,59.7,30.13,SW,225,0.0,0.0,99,0.00,,,0.00,meteohub,2013-10-01 12:49:00,
2013-10-01 08:54:00,60.4,60.1,30.13,SW,225,0.0,0.0,99,0.00,,,0.00,meteohub,2013-10-01 12:54:00,
2013-10-01 09:00:00,60.6,60.3,30.13,SW,225,0.0,0.0,99,0.00,,,0.00,meteohub,2013-10-01 13:00:00,
2013-10-01 09:05:00,60.8,60.4,30.14,SW,225,0.0,0.0,99,0.00,,,0.00,meteohub,2013-10-01 13:05:00,
2013-10-01 09:10:00,60.8,60.4,30.14,SW,225,0.0,0.0,99,0.00,,,0.00,meteohub,2013-10-01 13:10:00,
2013-10-01 09:15:00,61.2,60.8,30.14,SW,225,0.0,0.0,99,0.00,,,0.00,meteohub,2013-10-01 13:15:00,
2013-10-01 09:20:00,61.3,61.0,30.14,SW,225,0.0,0.0,99,0.00,,,0.00,meteohub,2013-10-01 13:20:00,
2013-10-01 09:26:00,61.3,61.0,30.14,SW,225,0.0,0.0,99,0.00,,,0.00,meteohub,2013-10-01 13:26:00,
2013-10-01 09:32:00,61.7,61.3,30.14,SW,225,0.0,0.0,99,0.00,,,0.00,meteohub,2013-10-01 13:32:00,
2013-10-01 09:37:00,62.1,61.7,30.14,SW,225,0.0,0.0,99,0.00,,,0.00,meteohub,2013-10-01 13:37:00,
2013-10-01 09:42:00,62.6,62.2,30.14,SW,225,0.0,0.0,99,0.00,,,0.00,meteohub,2013-10-01 13:42:00,
2013-10-01 09:47:00,63.0,62.6,30.15,SW,225,0.0,0.0,99,0.00,,,0.00,meteohub,2013-10-01 13:47:00,
2013-10-01 09:52:00,63.7,63.3,30.15,East,90,0.0,0.0,99,0.00,,,0.00,meteohub,2013-10-01 13:52:00,
2013-10-01 09:57:00,64.2,63.9,30.15,SE,135,1.0,2.0,99,0.00,,,0.00,meteohub,2013-10-01 13:57:00,
2013-10-01 10:02:00,64.8,64.4,30.15,East,90,0.0,2.0,99,0.00,,,0.00,meteohub,2013-10-01 14:02:00,
2013-10-01 10:07:00,65.3,64.9,30.15,East,90,0.0,2.0,99,0.00,,,0.00,meteohub,2013-10-01 14:07:00,
2013-10-01 10:14:00,65.7,65.3,30.16,East,90,0.0,1.0,99,0.00,,,0.00,meteohub,2013-10-01 14:14:00,
2013-10-01 10:19:00,66.0,65.7,30.16,East,90,0.0,0.0,99,0.00,,,0.00,meteohub,2013-10-01 14:19:00,
2013-10-01 10:24:00,66.2,65.8,30.16,NW,315,0.0,0.0,99,0.00,,,0.00,meteohub,2013-10-01 14:24:00,
2013-10-01 10:30:00,66.4,66.0,30.16,SE,135,0.0,1.0,99,0.00,,,0.00,meteohub,2013-10-01 14:30:00,
2013-10-01 10:35:00,66.6,66.2,30.15,SE,135,0.0,1.0,99,0.00,,,0.00,meteohub,2013-10-01 14:35:00,
2013-10-01 10:40:00,66.9,66.6,30.15,East,90,0.0,2.0,99,0.00,,,0.00,meteohub,2013-10-01 14:40:00,
2013-10-01 10:45:00,67.3,66.9,30.16,East,90,0.0,2.0,99,0.00,,,0.00,meteohub,2013-10-01 14:45:00,
2013-10-01 10:51:00,67.6,67.3,30.16,NW,315,0.0,2.0,99,0.00,,,0.00,meteohub,2013-10-01 14:51:00,
2013-10-01 10:56:00,68.2,67.8,30.15,East,90,1.0,1.0,99,0.00,,,0.00,meteohub,2013-10-01 14:56:00,
2013-10-01 11:02:00,68.5,68.2,30.16,South,180,0.0,2.0,99,0.00,,,0.00,meteohub,2013-10-01 15:02:00,
2013-10-01 11:07:00,68.9,68.5,30.15,East,90,1.0,2.0,99,0.00,,,0.00,meteohub,2013-10-01 15:07:00,
2013-10-01 11:12:00,69.4,69.1,30.15,East,90,0.0,2.0,99,0.00,,,0.00,meteohub,2013-10-01 15:12:00,
2013-10-01 11:17:00,69.6,69.3,30.15,SE,135,0.0,2.0,99,0.00,,,0.00,meteohub,2013-10-01 15:17:00,
2013-10-01 11:23:00,69.8,69.4,30.15,SE,135,0.0,2.0,99,0.00,,,0.00,meteohub,2013-10-01 15:23:00,
2013-10-01 11:28:00,70.0,69.6,30.14,SW,225,2.0,2.0,99,0.00,,,0.00,meteohub,2013-10-01 15:28:00,
2013-10-01 11:33:00,70.2,69.8,30.15,SE,135,0.0,2.0,99,0.00,,,0.00,meteohub,2013-10-01 15:33:00,
2013-10-01 11:39:00,70.3,70.0,30.15,SE,135,1.0,2.0,99,0.00,,,0.00,meteohub,2013-10-01 15:39:00,
2013-10-01 11:44:00,70.3,69.4,30.15,SE,135,0.0,2.0,97,0.00,,,0.00,meteohub,2013-10-01 15:44:00,
2013-10-01 11:49:00,70.5,69.6,30.15,East,90,0.0,2.0,97,0.00,,,0.00,meteohub,2013-10-01 15:49:00,
2013-10-01 11:54:00,70.9,69.6,30.15,North,0,1.0,2.0,96,0.00,,,0.00,meteohub,2013-10-01 15:54:00,
2013-10-01 11:59:00,71.1,69.6,30.14,NW,315,0.0,2.0,95,0.00,,,0.00,meteohub,2013-10-01 15:59:00,
2013-10-01 12:05:00,71.4,69.6,30.14,WNW,293,1.0,2.0,94,0.00,,,0.00,meteohub,2013-10-01 16:05:00,
2013-10-01 12:10:00,72.0,69.4,30.14,North,0,2.0,2.0,92,0.00,,,0.00,meteohub,2013-10-01 16:10:00,
2013-10-01 12:15:00,72.1,70.3,30.14,SE,135,1.0,2.0,94,0.00,,,0.00,meteohub,2013-10-01 16:15:00,
2013-10-01 12:20:00,72.3,70.2,30.14,SE,135,0.0,3.0,93,0.00,,,0.00,meteohub,2013-10-01 16:20:00,
2013-10-01 12:26:00,72.7,70.5,30.14,SE,135,0.0,3.0,93,0.00,,,0.00,meteohub,2013-10-01 16:26:00,
2013-10-01 12:31:00,73.2,69.8,30.14,North,0,2.0,3.0,89,0.00,,,0.00,meteohub,2013-10-01 16:31:00,
2013-10-01 12:32:00,73.2,69.4,30.14,East,90,2.0,3.0,88,0.00,,,0.00,meteohub,2013-10-01 16:32:00,
2013-10-01 12:37:00,73.2,69.8,30.14,North,0,1.0,2.0,89,0.00,,,0.00,meteohub,2013-10-01 16:37:00,
2013-10-01 12:44:00,73.6,70.5,30.13,SE,135,1.0,2.0,90,0.00,,,0.00,meteohub,2013-10-01 16:44:00,
2013-10-01 12:49:00,73.6,70.2,30.13,South,180,0.0,2.0,89,0.00,,,0.00,meteohub,2013-10-01 16:49:00,
2013-10-01 12:54:00,73.9,70.5,30.13,NW,315,1.0,2.0,89,0.00,,,0.00,meteohub,2013-10-01 16:54:00,
2013-10-01 13:00:00,74.5,70.7,30.12,East,90,0.0,2.0,88,0.00,,,0.00,meteohub,2013-10-01 17:00:00,
2013-10-01 13:05:00,74.8,71.4,30.13,East,90,0.0,3.0,89,0.00,,,0.00,meteohub,2013-10-01 17:05:00,
2013-10-01 13:10:00,75.0,70.2,30.12,SW,225,1.0,3.0,85,0.00,,,0.00,meteohub,2013-10-01 17:10:00,
2013-10-01 13:15:00,75.4,69.8,30.12,East,90,3.0,3.0,83,0.00,,,0.00,meteohub,2013-10-01 17:15:00,
2013-10-01 13:21:00,75.4,69.4,30.12,South,180,2.0,3.0,82,0.00,,,0.00,meteohub,2013-10-01 17:21:00,
2013-10-01 13:27:00,75.7,70.2,30.12,East,90,1.0,3.0,83,0.00,,,0.00,meteohub,2013-10-01 17:27:00,
2013-10-01 13:32:00,76.3,70.3,30.12,SE,135,3.0,3.0,82,0.00,,,0.00,meteohub,2013-10-01 17:32:00,
2013-10-01 13:37:00,76.3,71.1,30.11,North,0,2.0,3.0,84,0.00,,,0.00,meteohub,2013-10-01 17:37:00,
2013-10-01 13:42:00,76.5,70.5,30.11,SE,135,3.0,3.0,82,0.00,,,0.00,meteohub,2013-10-01 17:42:00,
2013-10-01 13:47:00,76.6,71.1,30.11,SW,225,2.0,4.0,83,0.00,,,0.00,meteohub,2013-10-01 17:47:00,
2013-10-01 13:52:00,76.6,71.1,30.10,SW,225,2.0,4.0,83,0.00,,,0.00,meteohub,2013-10-01 17:52:00,
2013-10-01 13:57:00,76.5,71.6,30.10,SW,225,0.0,4.0,85,0.00,,,0.00,meteohub,2013-10-01 17:57:00,
2013-10-01 14:02:00,76.1,70.5,30.10,SW,225,0.0,2.0,83,0.00,,,0.00,meteohub,2013-10-01 18:02:00,
2013-10-01 14:07:00,75.4,70.5,30.10,SW,225,0.0,2.0,85,0.00,,,0.00,meteohub,2013-10-01 18:07:00,
2013-10-01 14:12:00,74.8,70.0,30.09,NW,315,0.0,1.0,85,0.00,,,0.00,meteohub,2013-10-01 18:12:00,
2013-10-01 14:17:00,74.3,70.2,30.09,NW,315,0.0,0.0,87,0.00,,,0.00,meteohub,2013-10-01 18:17:00,
2013-10-01 14:22:00,74.1,70.7,30.09,NW,315,0.0,0.0,89,0.00,,,0.00,meteohub,2013-10-01 18:22:00,
2013-10-01 14:27:00,73.8,70.7,30.09,NW,315,0.0,0.0,90,0.00,,,0.00,meteohub,2013-10-01 18:27:00,
2013-10-01 14:32:00,73.9,71.8,30.09,NW,315,1.0,0.0,93,0.00,,,0.00,meteohub,2013-10-01 18:32:00,
2013-10-01 14:37:00,74.8,70.7,30.08,NW,315,0.0,2.0,87,0.00,,,0.00,meteohub,2013-10-01 18:37:00,
2013-10-01 14:42:00,75.7,71.6,30.09,NE,45,1.0,2.0,87,0.00,,,0.00,meteohub,2013-10-01 18:42:00,
2013-10-01 14:47:00,76.5,69.8,30.09,NE,45,2.0,2.0,80,0.00,,,0.00,meteohub,2013-10-01 18:47:00,
2013-10-01 14:52:00,77.0,70.3,30.09,West,270,0.0,3.0,80,0.00,,,0.00,meteohub,2013-10-01 18:52:00,
2013-10-01 14:58:00,77.5,71.2,30.09,SW,225,2.0,3.0,81,0.00,,,0.00,meteohub,2013-10-01 18:58:00,
2013-10-01 15:03:00,77.5,71.6,30.08,SW,225,0.0,3.0,82,0.00,,,0.00,meteohub,2013-10-01 19:03:00,
2013-10-01 15:09:00,77.2,71.2,30.08,SW,225,0.0,2.0,82,0.00,,,0.00,meteohub,2013-10-01 19:09:00,
2013-10-01 15:14:00,76.8,72.0,30.08,SW,225,0.0,2.0,85,0.00,,,0.00,meteohub,2013-10-01 19:14:00,
2013-10-01 15:19:00,76.3,71.4,30.08,SW,225,0.0,0.0,85,0.00,,,0.00,meteohub,2013-10-01 19:19:00,
2013-10-01 15:24:00,76.1,71.6,30.07,SW,225,0.0,0.0,86,0.00,,,0.00,meteohub,2013-10-01 19:24:00,
2013-10-01 15:30:00,76.5,71.2,30.07,SW,225,0.0,0.0,84,0.00,,,0.00,meteohub,2013-10-01 19:30:00,
2013-10-01 15:35:00,76.5,70.5,30.07,NW,315,0.0,0.0,82,0.00,,,0.00,meteohub,2013-10-01 19:35:00,
2013-10-01 15:40:00,76.5,71.6,30.06,NW,315,0.0,2.0,85,0.00,,,0.00,meteohub,2013-10-01 19:40:00,
2013-10-01 15:45:00,75.9,71.4,30.07,NW,315,0.0,2.0,86,0.00,,,0.00,meteohub,2013-10-01 19:45:00,
2013-10-01 15:51:00,75.9,71.8,30.06,NW,315,0.0,0.0,87,0.00,,,0.00,meteohub,2013-10-01 19:51:00,
2013-10-01 15:56:00,75.7,72.0,30.06,NW,315,0.0,0.0,88,0.00,,,0.00,meteohub,2013-10-01 19:56:00,
2013-10-01 16:01:00,75.7,72.3,30.06,NW,315,1.0,0.0,89,0.00,,,0.00,meteohub,2013-10-01 20:01:00,
2013-10-01 16:06:00,76.1,72.9,30.06,NW,315,0.0,1.0,90,0.00,,,0.00,meteohub,2013-10-01 20:06:00,
2013-10-01 16:12:00,76.5,72.3,30.06,East,90,1.0,1.0,87,0.00,,,0.00,meteohub,2013-10-01 20:12:00,
2013-10-01 16:18:00,77.0,72.9,30.06,ENE,68,0.0,2.0,87,0.00,,,0.00,meteohub,2013-10-01 20:18:00,
2013-10-01 16:23:00,77.2,71.2,30.06,South,180,1.0,2.0,82,0.00,,,0.00,meteohub,2013-10-01 20:23:00,
2013-10-01 16:29:00,77.7,72.1,30.06,South,180,0.0,2.0,83,0.00,,,0.00,meteohub,2013-10-01 20:29:00,
2013-10-01 16:34:00,78.1,72.1,30.06,South,180,1.0,2.0,82,0.00,,,0.00,meteohub,2013-10-01 20:34:00,
2013-10-01 16:39:00,78.3,72.3,30.05,SE,135,0.0,2.0,82,0.00,,,0.00,meteohub,2013-10-01 20:39:00,
2013-10-01 16:44:00,78.4,71.8,30.05,SE,135,0.0,2.0,80,0.00,,,0.00,meteohub,2013-10-01 20:44:00,
2013-10-01 16:50:00,79.0,72.3,30.05,SE,135,0.0,2.0,80,0.00,,,0.00,meteohub,2013-10-01 20:50:00,
2013-10-01 16:55:00,79.5,72.1,30.05,NW,315,2.0,2.0,78,0.00,,,0.00,meteohub,2013-10-01 20:55:00,
2013-10-01 17:01:00,80.1,72.1,30.05,NW,315,2.0,2.0,77,0.00,,,0.00,meteohub,2013-10-01 21:01:00,
2013-10-01 17:06:00,79.9,71.6,30.05,NW,315,1.0,2.0,76,0.00,,,0.00,meteohub,2013-10-01 21:06:00,
2013-10-01 17:11:00,81.0,72.7,30.06,NW,315,1.0,2.0,76,0.00,,,0.00,meteohub,2013-10-01 21:11:00,
2013-10-01 17:16:00,81.5,72.0,30.06,NW,315,1.0,2.0,73,0.00,,,0.00,meteohub,2013-10-01 21:16:00,
2013-10-01 17:22:00,80.6,72.0,30.06,NW,315,0.0,2.0,75,0.00,,,0.00,meteohub,2013-10-01 21:22:00,
2013-10-01 17:27:00,79.5,71.6,30.05,NW,315,0.0,2.0,77,0.00,,,0.00,meteohub,2013-10-01 21:27:00,
2013-10-01 17:32:00,78.8,71.8,30.06,NW,315,0.0,2.0,79,0.00,,,0.00,meteohub,2013-10-01 21:32:00,
2013-10-01 17:37:00,78.1,71.1,30.06,NW,315,0.0,1.0,79,0.00,,,0.00,meteohub,2013-10-01 21:37:00,
2013-10-01 17:42:00,77.7,71.4,30.06,NW,315,0.0,1.0,81,0.00,,,0.00,meteohub,2013-10-01 21:42:00,
2013-10-01 17:48:00,77.5,71.6,30.06,NW,315,0.0,1.0,82,0.00,,,0.00,meteohub,2013-10-01 21:48:00,
2013-10-01 17:53:00,77.0,71.8,30.06,NW,315,0.0,0.0,84,0.00,,,0.00,meteohub,2013-10-01 21:53:00,
2013-10-01 17:58:00,76.5,71.6,30.06,NW,315,0.0,0.0,85,0.00,,,0.00,meteohub,2013-10-01 21:58:00,
2013-10-01 18:04:00,76.1,71.6,30.06,NW,315,0.0,0.0,86,0.00,,,0.00,meteohub,2013-10-01 22:04:00,
2013-10-01 18:09:00,75.6,71.4,30.06,NW,315,0.0,0.0,87,0.00,,,0.00,meteohub,2013-10-01 22:09:00,
2013-10-01 18:14:00,75.2,71.4,30.06,NW,315,0.0,0.0,88,0.00,,,0.00,meteohub,2013-10-01 22:14:00,
2013-10-01 18:19:00,75.0,71.6,30.06,NW,315,0.0,0.0,89,0.00,,,0.00,meteohub,2013-10-01 22:19:00,
2013-10-01 18:25:00,74.7,71.6,30.06,NW,315,0.0,0.0,90,0.00,,,0.00,meteohub,2013-10-01 22:25:00,
2013-10-01 18:30:00,74.3,71.4,30.06,NW,315,0.0,0.0,91,0.00,,,0.00,meteohub,2013-10-01 22:30:00,
2013-10-01 18:35:00,73.9,71.4,30.06,NW,315,0.0,0.0,92,0.00,,,0.00,meteohub,2013-10-01 22:35:00,
2013-10-01 18:40:00,73.6,71.4,30.06,NW,315,0.0,0.0,93,0.00,,,0.00,meteohub,2013-10-01 22:40:00,
2013-10-01 18:46:00,73.2,71.4,30.06,NW,315,0.0,0.0,94,0.00,,,0.00,meteohub,2013-10-01 22:46:00,
2013-10-01 18:51:00,72.9,71.4,30.06,NW,315,0.0,0.0,95,0.00,,,0.00,meteohub,2013-10-01 22:51:00,
2013-10-01 18:56:00,72.7,71.4,30.06,NW,315,0.0,0.0,96,0.00,,,0.00,meteohub,2013-10-01 22:56:00,
2013-10-01 19:01:00,72.1,71.2,30.06,NW,315,0.0,0.0,97,0.00,,,0.00,meteohub,2013-10-01 23:01:00,
2013-10-01 19:07:00,71.8,70.9,30.07,NW,315,0.0,0.0,97,0.00,,,0.00,meteohub,2013-10-01 23:07:00,
2013-10-01 19:12:00,71.6,71.1,30.06,NW,315,0.0,0.0,98,0.00,,,0.00,meteohub,2013-10-01 23:12:00,
2013-10-01 19:17:00,71.2,70.9,30.07,NW,315,0.0,0.0,99,0.00,,,0.00,meteohub,2013-10-01 23:17:00,
2013-10-01 19:20:00,71.1,70.7,30.07,NW,315,0.0,0.0,99,0.00,,,0.00,meteohub,2013-10-01 23:20:00,
2013-10-01 19:25:00,70.7,70.3,30.07,NW,315,0.0,0.0,99,0.00,,,0.00,meteohub,2013-10-01 23:25:00,
2013-10-01 19:31:00,70.5,70.2,30.07,NW,315,0.0,0.0,99,0.00,,,0.00,meteohub,2013-10-01 23:31:00,
2013-10-01 19:32:00,70.3,70.0,30.07,NW,315,0.0,0.0,99,0.00,,,0.00,meteohub,2013-10-01 23:32:00,
2013-10-01 19:37:00,70.0,69.6,30.08,NW,315,0.0,0.0,99,0.00,,,0.00,meteohub,2013-10-01 23:37:00,
2013-10-01 19:42:00,69.8,69.4,30.07,NW,315,0.0,0.0,99,0.00,,,0.00,meteohub,2013-10-01 23:42:00,
2013-10-01 19:47:00,69.4,69.1,30.07,NW,315,0.0,0.0,99,0.00,,,0.00,meteohub,2013-10-01 23:47:00,
2013-10-01 19:52:00,69.3,68.9,30.07,NW,315,0.0,0.0,99,0.00,,,0.00,meteohub,2013-10-01 23:52:00,
2013-10-01 19:57:00,69.1,68.7,30.08,NW,315,0.0,0.0,99,0.00,,,0.00,meteohub,2013-10-01 23:57:00,
2013-10-01 20:02:00,68.7,68.4,30.08,NW,315,0.0,0.0,99,0.00,,,0.00,meteohub,2013-10-02 00:02:00,
2013-10-01 20:07:00,68.5,68.2,30.08,NW,315,0.0,0.0,99,0.00,,,0.00,meteohub,2013-10-02 00:07:00,
2013-10-01 20:12:00,68.4,68.0,30.08,NW,315,0.0,0.0,99,0.00,,,0.00,meteohub,2013-10-02 00:12:00,
2013-10-01 20:17:00,68.0,67.6,30.08,NW,315,0.0,0.0,99,0.00,,,0.00,meteohub,2013-10-02 00:17:00,
2013-10-01 20:22:00,67.8,67.5,30.09,NW,315,0.0,0.0,99,0.00,,,0.00,meteohub,2013-10-02 00:22:00,
2013-10-01 20:27:00,67.6,67.3,30.09,NW,315,0.0,0.0,99,0.00,,,0.00,meteohub,2013-10-02 00:27:00,
2013-10-01 20:32:00,67.5,67.1,30.09,NW,315,0.0,0.0,99,0.00,,,0.00,meteohub,2013-10-02 00:32:00,
2013-10-01 20:37:00,67.3,66.9,30.08,NW,315,0.0,0.0,99,0.00,,,0.00,meteohub,2013-10-02 00:37:00,
2013-10-01 20:42:00,67.1,66.7,30.09,NW,315,0.0,0.0,99,0.00,,,0.00,meteohub,2013-10-02 00:42:00,
2013-10-01 20:47:00,67.1,66.7,30.09,NW,315,0.0,0.0,99,0.00,,,0.00,meteohub,2013-10-02 00:47:00,
2013-10-01 20:52:00,66.7,66.4,30.09,NW,315,0.0,0.0,99,0.00,,,0.00,meteohub,2013-10-02 00:52:00,
2013-10-01 20:57:00,66.6,66.2,30.09,NW,315,0.0,0.0,99,0.00,,,0.00,meteohub,2013-10-02 00:57:00,
2013-10-01 21:02:00,66.4,66.0,30.10,NW,315,0.0,0.0,99,0.00,,,0.00,meteohub,2013-10-02 01:02:00,
2013-10-01 21:07:00,66.4,66.0,30.09,NW,315,0.0,0.0,99,0.00,,,0.00,meteohub,2013-10-02 01:07:00,
2013-10-01 21:12:00,66.2,65.8,30.09,NW,315,0.0,0.0,99,0.00,,,0.00,meteohub,2013-10-02 01:12:00,
2013-10-01 21:17:00,66.0,65.7,30.09,NW,315,0.0,0.0,99,0.00,,,0.00,meteohub,2013-10-02 01:17:00,
2013-10-01 21:22:00,65.8,65.5,30.09,NW,315,0.0,0.0,99,0.00,,,0.00,meteohub,2013-10-02 01:22:00,
2013-10-01 21:27:00,65.8,65.5,30.09,NW,315,0.0,0.0,99,0.00,,,0.00,meteohub,2013-10-02 01:27:00,
2013-10-01 21:32:00,65.7,65.3,30.10,NW,315,0.0,0.0,99,0.00,,,0.00,meteohub,2013-10-02 01:32:00,
2013-10-01 21:37:00,65.5,65.1,30.10,NW,315,0.0,0.0,99,0.00,,,0.00,meteohub,2013-10-02 01:37:00,
2013-10-01 21:42:00,65.3,64.9,30.10,NW,315,0.0,0.0,99,0.00,,,0.00,meteohub,2013-10-02 01:42:00,
2013-10-01 21:47:00,65.1,64.8,30.10,NW,315,0.0,0.0,99,0.00,,,0.00,meteohub,2013-10-02 01:47:00,
2013-10-01 21:52:00,65.1,64.8,30.10,NW,315,0.0,0.0,99,0.00,,,0.00,meteohub,2013-10-02 01:52:00,
2013-10-01 21:57:00,65.1,64.8,30.10,NW,315,0.0,0.0,99,0.00,,,0.00,meteohub,2013-10-02 01:57:00,
2013-10-01 22:02:00,65.1,64.8,30.10,NW,315,2.0,0.0,99,0.00,,,0.00,meteohub,2013-10-02 02:02:00,
2013-10-01 22:07:00,65.1,64.8,30.10,NW,315,0.0,2.0,99,0.00,,,0.00,meteohub,2013-10-02 02:07:00,
2013-10-01 22:12:00,64.9,64.6,30.10,NW,315,0.0,2.0,99,0.00,,,0.00,meteohub,2013-10-02 02:12:00,
2013-10-01 22:17:00,64.9,64.6,30.10,NW,315,0.0,2.0,99,0.00,,,0.00,meteohub,2013-10-02 02:17:00,
2013-10-01 22:22:00,64.8,64.4,30.10,NW,315,0.0,1.0,99,0.00,,,0.00,meteohub,2013-10-02 02:22:00,
2013-10-01 22:27:00,64.8,64.4,30.11,NW,315,0.0,1.0,99,0.00,,,0.00,meteohub,2013-10-02 02:27:00,
2013-10-01 22:32:00,64.6,64.2,30.11,NW,315,0.0,0.0,99,0.00,,,0.00,meteohub,2013-10-02 02:32:00,
2013-10-01 22:37:00,64.4,64.0,30.10,NW,315,0.0,0.0,99,0.00,,,0.00,meteohub,2013-10-02 02:37:00,
2013-10-01 22:42:00,64.2,63.9,30.11,NW,315,0.0,0.0,99,0.00,,,0.00,meteohub,2013-10-02 02:42:00,
2013-10-01 22:47:00,64.2,63.9,30.11,NW,315,0.0,0.0,99,0.00,,,0.00,meteohub,2013-10-02 02:47:00,
2013-10-01 22:52:00,64.0,63.7,30.11,NW,315,0.0,0.0,99,0.00,,,0.00,meteohub,2013-10-02 02:52:00,
2013-10-01 22:57:00,64.0,63.7,30.11,NW,315,0.0,0.0,99,0.00,,,0.00,meteohub,2013-10-02 02:57:00,
2013-10-01 23:02:00,63.9,63.5,30.11,NW,315,0.0,0.0,99,0.00,,,0.00,meteohub,2013-10-02 03:02:00,
2013-10-01 23:07:00,63.9,63.5,30.11,NW,315,0.0,0.0,99,0.00,,,0.00,meteohub,2013-10-02 03:07:00,
2013-10-01 23:12:00,63.7,63.3,30.12,NW,315,0.0,0.0,99,0.00,,,0.00,meteohub,2013-10-02 03:12:00,
2013-10-01 23:17:00,63.7,63.3,30.11,NW,315,0.0,0.0,99,0.00,,,0.00,meteohub,2013-10-02 03:17:00,
2013-10-01 23:22:00,63.7,63.3,30.12,NW,315,0.0,0.0,99,0.00,,,0.00,meteohub,2013-10-02 03:22:00,
2013-10-01 23:27:00,63.7,63.3,30.11,NW,315,0.0,0.0,99,0.00,,,0.00,meteohub,2013-10-02 03:27:00,
2013-10-01 23:32:00,63.7,63.3,30.11,NW,315,0.0,0.0,99,0.00,,,0.00,meteohub,2013-10-02 03:32:00,
2013-10-01 23:37:00,63.7,63.3,30.11,NW,315,0.0,0.0,99,0.00,,,0.00,meteohub,2013-10-02 03:37:00,
2013-10-01 23:42:00,63.5,63.1,30.11,NW,315,0.0,0.0,99,0.00,,,0.00,meteohub,2013-10-02 03:42:00,
2013-10-01 23:47:00,63.5,63.1,30.11,NW,315,0.0,0.0,99,0.00,,,0.00,meteohub,2013-10-02 03:47:00,
2013-10-01 23:52:00,63.3,63.0,30.12,NW,315,0.0,0.0,99,0.00,,,0.00,meteohub,2013-10-02 03:52:00,
2013-10-01 23:57:00,63.1,62.8,30.12,NW,315,0.0,0.0,99,0.00,,,0.00,meteohub,2013-10-02 03:57:00,